Weather History for Metropolis, IL

Change the Weather History Date:

Saturday, January 11, 2014

  Actual Average (KPAH) Record (KPAH)
Temperature  
Mean Temperature 44 °F 34 °F  
Max Temperature 51 °F 43 °F 68 °F (1995)
Min Temperature 36 °F 26 °F -11 °F (1977)
Degree Days  
Heating Degree Days 21 31  
Month to date heating degree days 338  
Since 1 July heating degree days 1969  
Cooling Degree Days 0 0  
Month to date cooling degree days 0  
Year to date cooling degree days 0  
Moisture  
Dew Point 37 °F    
Average Humidity 76    
Maximum Humidity 98    
Minimum Humidity 62    
Precipitation  
Precipitation 0.06 in 0.11 in 0.96 in (1980)
Month to date precipitation 1.32  
Year to date precipitation 1.32  
Snow  
Snow 0.00 in 0.10 in 1.00 in (1970)
Month to date snowfall 1.0  
Since 1 July snowfall 3.3  
Snow Depth -    
Sea Level Pressure  
Sea Level Pressure 29.76 in    
Wind  
Wind Speed 8 mph (WSW)    
Max Wind Speed 13 mph    
Max Gust Speed 21 mph    
Visibility 10 miles    
Events Rain    
T = Trace of Precipitation, MM = Missing Value Source: NWS Daily Summary

Daily Weather History Graph

Daily Weather History Graph

Search for Another Location

Airport:

Trip Planner

Search our weather history database for the weather conditions in past years. The results will help you decide how hot, cold, wet, or windy it might be!

Date:

Astronomy

Jan. 11, 2014 Rise Set
Actual Time 7:08 AM CST 4:57 PM CST
Civil Twilight 6:40 AM CST 5:26 PM CST
Nautical Twilight 6:07 AM CST 5:58 PM CST
Astronomical Twilight 5:36 AM CST 6:29 PM CST
Moon 1:40 PM CST (1/11) 3:14 AM CST (1/11)
Length of Visible Light 10h 46m
Length of Day
9h 48m
Waxing Gibbous, 83% of the Moon is Illuminated
Jan 11
Waxing Gibbous
Jan 15
Full
Jan 23
Last Quarter
Jan 30
New
Feb 6
First Quarter

Hourly Weather History & Observations

Time (CST) Temp. Windchill Dew Point Humidity Pressure Visibility Wind Dir Wind Speed Gust Speed Precip Events Conditions
12:15 AM 50.9 °F - 50.4 °F 98% 29.61 in 5.0 mi SSE 6.9 mph - 0.03 in Rain Rain
12:35 AM 51.1 °F - 50.5 °F 98% 29.60 in 5.0 mi South 9.2 mph 16.1 mph 0.06 in Rain Heavy Rain
12:55 AM 51.1 °F - 50.4 °F 97% 29.60 in 10.0 mi South 9.2 mph 20.7 mph 0.06 in   Overcast
1:15 AM 51.8 °F - 50.5 °F 95% 29.59 in 10.0 mi SSW 6.9 mph - N/A   Overcast
1:35 AM 51.3 °F - 50.4 °F 97% 29.59 in 10.0 mi South 8.1 mph - N/A   Overcast
1:55 AM 50.9 °F - 50.2 °F 97% 29.59 in 10.0 mi SSW 9.2 mph - N/A   Overcast
2:15 AM 51.4 °F - 50.4 °F 96% 29.59 in 10.0 mi SSW 10.4 mph 16.1 mph N/A   Overcast
2:35 AM 51.4 °F - 50.2 °F 95% 29.59 in 10.0 mi SSW 9.2 mph 18.4 mph N/A   Overcast
2:55 AM 51.8 °F - 49.6 °F 92% 29.60 in 10.0 mi SW 12.7 mph 18.4 mph N/A   Overcast
3:15 AM 51.1 °F - 48.7 °F 92% 29.60 in 10.0 mi WSW 12.7 mph 19.6 mph N/A   Overcast
3:35 AM 50.0 °F - 48.2 °F 94% 29.61 in 10.0 mi WSW 9.2 mph 16.1 mph N/A   Overcast
3:55 AM 49.3 °F - 47.5 °F 94% 29.62 in 10.0 mi WSW 9.2 mph - N/A   Overcast
4:15 AM 47.8 °F - 46.2 °F 94% 29.62 in 10.0 mi WSW 9.2 mph 16.1 mph N/A   Scattered Clouds
4:35 AM 47.3 °F - 45.3 °F 93% 29.63 in 10.0 mi WSW 6.9 mph - N/A   Clear
4:55 AM 46.6 °F - 43.7 °F 90% 29.64 in 10.0 mi WSW 11.5 mph - N/A   Clear
5:15 AM 46.2 °F 42.7 °F 43.0 °F 88% 29.65 in 10.0 mi WSW 6.9 mph 16.1 mph N/A   Clear
5:35 AM 44.8 °F 40.4 °F 41.2 °F 87% 29.66 in 10.0 mi WSW 8.1 mph - N/A   Clear
5:55 AM 43.7 °F 39.7 °F 35.8 °F 74% 29.66 in 10.0 mi WSW 6.9 mph - N/A   Clear
6:15 AM 42.6 °F 37.8 °F 34.3 °F 73% 29.67 in 10.0 mi WSW 8.1 mph - N/A   Clear
6:35 AM 41.9 °F 36.3 °F 33.1 °F 71% 29.68 in 10.0 mi WSW 9.2 mph - N/A   Clear
6:55 AM 41.4 °F 36.2 °F 32.7 °F 71% 29.69 in 10.0 mi West 8.1 mph - N/A   Clear
7:15 AM 41.0 °F 36.4 °F 32.9 °F 73% 29.70 in 10.0 mi WSW 6.9 mph - N/A   Clear
7:35 AM 40.3 °F 34.9 °F 33.1 °F 75% 29.71 in 10.0 mi WSW 8.1 mph - N/A   Clear
8:00 AM 40.3 °F 36.3 °F 33.1 °F 75% 29.72 in 10.0 mi WSW 5.8 mph - N/A   Clear
8:15 AM 40.6 °F 36.7 °F 32.9 °F 74% 29.72 in 10.0 mi SW 5.8 mph - N/A   Clear
8:35 AM 41.0 °F 35.8 °F 33.1 °F 73% 29.74 in 10.0 mi WSW 8.1 mph - N/A   Clear
8:55 AM 41.9 °F 36.3 °F 32.9 °F 70% 29.74 in 10.0 mi WSW 9.2 mph - N/A   Clear
9:15 AM 42.4 °F 37.0 °F 33.1 °F 69% 29.75 in 10.0 mi West 9.2 mph 17.3 mph N/A   Clear
9:35 AM 43.0 °F 37.7 °F 33.4 °F 69% 29.76 in 10.0 mi WSW 9.2 mph 16.1 mph N/A   Clear
9:55 AM 43.0 °F 37.7 °F 32.9 °F 68% 29.77 in 10.0 mi West 9.2 mph 17.3 mph N/A   Mostly Cloudy
10:15 AM 43.0 °F 38.2 °F 33.4 °F 69% 29.78 in 10.0 mi WSW 8.1 mph - N/A   Overcast
10:35 AM 43.5 °F 38.3 °F 33.6 °F 68% 29.79 in 10.0 mi WSW 9.2 mph - N/A   Overcast
10:55 AM 43.3 °F 38.6 °F 33.4 °F 68% 29.78 in 10.0 mi West 8.1 mph - N/A   Overcast
11:15 AM 43.5 °F 38.3 °F 33.4 °F 68% 29.78 in 10.0 mi West 9.2 mph - N/A   Overcast
11:35 AM 44.1 °F 40.8 °F 34.5 °F 69% 29.77 in 10.0 mi West 5.8 mph - N/A   Overcast
11:55 AM 44.2 °F 39.7 °F 33.3 °F 65% 29.76 in 10.0 mi West 8.1 mph - N/A   Mostly Cloudy
12:15 PM 44.6 °F 39.7 °F 33.3 °F 64% 29.76 in 10.0 mi West 9.2 mph - N/A   Mostly Cloudy
12:35 PM 44.8 °F 40.4 °F 34.0 °F 66% 29.75 in 10.0 mi WSW 8.1 mph - N/A   Mostly Cloudy
12:55 PM 45.5 °F 41.8 °F 34.0 °F 64% 29.76 in 10.0 mi WSW 6.9 mph - N/A   Mostly Cloudy
1:15 PM 45.5 °F 40.8 °F 34.0 °F 64% 29.76 in 10.0 mi West 9.2 mph - N/A   Mostly Cloudy
1:35 PM 46.0 °F 41.9 °F 34.9 °F 65% 29.76 in 10.0 mi WSW 8.1 mph - N/A   Scattered Clouds
1:55 PM 45.9 °F 41.2 °F 34.7 °F 65% 29.77 in 10.0 mi WSW 9.2 mph - N/A   Scattered Clouds
2:15 PM 47.1 °F - 35.4 °F 64% 29.77 in 10.0 mi WSW 8.1 mph - N/A   Scattered Clouds
2:35 PM 47.5 °F - 34.9 °F 62% 29.78 in 10.0 mi SW 9.2 mph 16.1 mph N/A   Scattered Clouds
2:55 PM 47.5 °F - 35.4 °F 63% 29.79 in 10.0 mi SW 9.2 mph 16.1 mph N/A   Scattered Clouds
3:15 PM 47.5 °F - 34.9 °F 62% 29.80 in 10.0 mi WSW 11.5 mph 17.3 mph N/A   Scattered Clouds
3:35 PM 47.3 °F - 34.7 °F 62% 29.80 in 10.0 mi WSW 10.4 mph 17.3 mph N/A   Scattered Clouds
3:55 PM 46.9 °F - 34.7 °F 62% 29.80 in 10.0 mi SW 9.2 mph - N/A   Clear
4:15 PM 46.6 °F - 34.7 °F 63% 29.81 in 10.0 mi SW 5.8 mph - N/A   Clear
4:35 PM 45.9 °F 41.2 °F 34.3 °F 64% 29.82 in 10.0 mi SW 9.2 mph - N/A   Clear
4:55 PM 44.6 °F 40.7 °F 34.0 °F 66% 29.82 in 10.0 mi SW 6.9 mph - N/A   Clear
5:15 PM 44.6 °F 40.2 °F 34.3 °F 67% 29.83 in 10.0 mi SW 8.1 mph - N/A   Mostly Cloudy
5:35 PM 44.6 °F 39.7 °F 35.6 °F 71% 29.83 in 10.0 mi SSW 9.2 mph - N/A   Overcast
5:55 PM 44.1 °F 40.1 °F 36.0 °F 73% 29.83 in 10.0 mi SW 6.9 mph - N/A   Mostly Cloudy
6:15 PM 43.0 °F 38.2 °F 35.8 °F 76% 29.85 in 10.0 mi SW 8.1 mph - N/A   Scattered Clouds
6:35 PM 42.8 °F 39.3 °F 35.8 °F 76% 29.85 in 10.0 mi SW 5.8 mph - N/A   Clear
6:55 PM 42.3 °F 38.6 °F 35.2 °F 76% 29.86 in 10.0 mi SW 5.8 mph - N/A   Clear
7:15 PM 41.9 °F 40.0 °F 35.1 °F 77% 29.87 in 10.0 mi WSW 3.5 mph - N/A   Clear
7:35 PM 42.3 °F 37.9 °F 34.7 °F 75% 29.88 in 10.0 mi SW 6.9 mph - N/A   Scattered Clouds
7:55 PM 42.4 °F 38.1 °F 34.5 °F 74% 29.88 in 10.0 mi WSW 6.9 mph - N/A   Scattered Clouds
8:15 PM 42.6 °F 39.0 °F 34.0 °F 71% 29.89 in 10.0 mi WSW 5.8 mph - N/A   Scattered Clouds
8:35 PM 42.4 °F 39.6 °F 33.8 °F 71% 29.90 in 10.0 mi WSW 4.6 mph - N/A   Clear
8:55 PM 41.5 °F 37.1 °F 33.6 °F 73% 29.91 in 10.0 mi WSW 6.9 mph - N/A   Clear
9:15 PM 41.2 °F 35.5 °F 33.6 °F 74% 29.92 in 10.0 mi WSW 9.2 mph - N/A   Clear
9:35 PM 41.2 °F 37.3 °F 33.4 °F 74% 29.93 in 10.0 mi WSW 5.8 mph 16.1 mph N/A   Clear
9:55 PM 40.1 °F 36.1 °F 33.1 °F 76% 29.93 in 10.0 mi WSW 5.8 mph - N/A   Clear
10:15 PM 40.1 °F 34.7 °F 33.1 °F 76% 29.94 in 10.0 mi West 8.1 mph - N/A   Clear
10:35 PM 39.6 °F 35.4 °F 32.5 °F 76% 29.94 in 10.0 mi WSW 5.8 mph - N/A   Clear
10:55 PM 38.5 °F 35.0 °F 32.2 °F 78% 29.94 in 10.0 mi SW 4.6 mph - N/A   Clear
11:15 PM 37.8 °F 35.3 °F 32.2 °F 80% 29.95 in 10.0 mi SW 3.5 mph - N/A   Clear
11:35 PM 37.4 °F 34.9 °F 32.7 °F 83% 29.95 in 10.0 mi SW 3.5 mph - N/A   Clear
11:55 PM 36.3 °F 32.5 °F 32.5 °F 86% 29.95 in 10.0 mi WSW 4.6 mph - N/A   Clear